• Join FlightAware (Why Join?)
  • Login
  • US Flag 
07:57PM EST


 

Airport Tracker/Info


-or-


 

Live Flight TrackerFlight Track Log ✈ ASQ537T ✈ 26-Mar-2013 ✈ KIAH - KMFE

Flight Track Log - Related Links

Times and Time Zones

All times are in EDT time to prevent confusion due to time zone crossing. See the ASQ537T flight status page for this flight to view local times or setup timezone preferences in your user account.

Time Position Orientation Groundspeed Altitude Reporting Facility
EDT Latitude Longitude Course Direction KTS MPH feet Rate Location/Type
02:03PM 29.9772 -95.3514 North 141 162 600  Level Houston Center
02:04PM 29.9958 -95.3492 North 159 183 1,600 1,980 Climbing Houston Center
02:05PM 29.9683 -95.3017 124° Southeast 234 269 3,500 1,620 Climbing Houston Center
02:05PM 29.9561 -95.2903 141° Southeast 238 274 3,700 480 Climbing Houston Center
02:06PM 29.9072 -95.2536 147° Southeast 268 308 4,000 240 Climbing Houston Center
02:06PM 29.8950 -95.2431 143° Southeast 257 296 4,000 1,920 Level Houston Center
02:07PM 29.8397 -95.2042 149° Southeast 269 310 6,000 2,280 Climbing Houston Center
02:07PM 29.8317 -95.1958 138° Southeast 267 307 6,400 2,280 Climbing Houston Center
02:08PM 29.7636 -95.1556 153° Southeast 292 336 8,600 1,980 Climbing Houston Center
02:09PM 29.6758 -95.1439 173° South 305 351 10,500 1,320 Climbing Houston Center
02:10PM 29.5775 -95.1853 200° South 348 400 11,700 1,440 Climbing Houston Center
02:11PM 29.4883 -95.2319 204° Southwest 351 404 13,500 1,560 Climbing Houston Center
02:12PM 29.3992 -95.2767 204° Southwest 350 403 15,000 1,500 Climbing Houston Center
02:13PM 29.2931 -95.3350 206° Southwest 352 405 16,600 1,260 Climbing Houston Center
02:14PM 29.2197 -95.4086 221° Southwest 349 402 17,700 780 Climbing Houston Center
02:15PM 29.1431 -95.4819 220° Southwest 355 409 18,300 780 Climbing Houston Center
02:16PM 29.0650 -95.5564 220° Southwest 362 417 19,400 1,020 Climbing Houston Center
02:17PM 28.9867 -95.6325 220° Southwest 367 422 20,500 960 Climbing Houston Center
02:18PM 28.9061 -95.7094 220° Southwest 375 432 21,500 1,200 Climbing Houston Center
02:19PM 28.8094 -95.8019 220° Southwest 377 434 23,000 1,320 Climbing Houston Center
02:20PM 28.7303 -95.8778 220° Southwest 374 430 24,300 1,200 Climbing Houston Center
02:21PM 28.6525 -95.9522 220° Southwest 367 422 25,600 1,200 Climbing Houston Center
02:22PM 28.5739 -96.0267 220° Southwest 360 414 26,900 1,260 Climbing Houston Center
02:23PM 28.4992 -96.0992 220° Southwest 354 407 28,300 1,320 Climbing Houston Center
02:24PM 28.4264 -96.1681 220° Southwest 344 396 29,700 1,440 Climbing Houston Center
02:25PM 28.3414 -96.2478 220° Southwest 331 381 31,300 1,440 Climbing Houston Center
02:27PM 28.2714 -96.3136 220° Southwest 328 377 32,700 1,200 Climbing Houston Center
02:28PM 28.2028 -96.3794 220° Southwest 324 373 33,900 600 Climbing Houston Center
02:29PM 28.1311 -96.4461 219° Southwest 330 380 34,000  Climbing Houston Center
02:30PM 28.0550 -96.5178 220° Southwest 349 402 34,000  Level Houston Center
02:31PM 27.9767 -96.5922 220° Southwest 361 415 34,000  Level Houston Center
02:32PM 27.8828 -96.6808 220° Southwest 364 419 34,000  Level Houston Center
02:33PM 27.8031 -96.7558 220° Southwest 367 422 34,000  Level Houston Center
02:34PM 27.7256 -96.8292 220° Southwest 367 422 34,000  Level Houston Center
02:35PM 27.6472 -96.9022 220° Southwest 366 421 34,000  Level Houston Center
02:36PM 27.5711 -96.9733 220° Southwest 362 417 34,000 -120 Level Houston Center
02:37PM 27.4956 -97.0433 219° Southwest 357 411 33,800 -1,260 Descending Houston Center
02:38PM 27.4014 -97.1303 219° Southwest 359 413 31,500 -2,100 Descending Houston Center
02:39PM 27.3200 -97.2050 219° Southwest 366 421 29,500 -1,980 Descending Houston Center
02:40PM 27.2372 -97.2800 219° Southwest 374 430 27,500 -1,980 Descending Houston Center
02:41PM 27.1519 -97.3575 219° Southwest 382 440 25,500 -2,160 Descending Houston Center
02:42PM 27.0492 -97.4481 218° Southwest 415 478 23,100 -2,280 Descending Houston Center
02:42PM 27.0139 -97.4814 220° Southwest 406 467 22,200 -2,160 Descending Houston Center
02:43PM 26.9631 -97.5278 219° Southwest 409 471 20,900 -2,160 Descending Houston Center
02:44PM 26.9178 -97.5672 218° Southwest 386 444 19,800 -2,160 Descending Houston Center
02:44PM 26.8750 -97.6078 220° Southwest 383 441 18,700 -2,040 Descending Houston Center
02:45PM 26.8375 -97.6414 219° Southwest 380 437 17,800 -1,500 Descending Houston Center
02:45PM 26.7972 -97.6858 225° Southwest 376 433 17,200 -1,800 Descending Houston Center
02:46PM 26.7644 -97.7239 226° Southwest 367 422 16,000 -2,460 Descending Houston Center
02:46PM 26.7250 -97.7700 226° Southwest 337 388 14,700 -1,920 Descending Houston Center
02:47PM 26.7011 -97.8003 229° Southwest 341 392 14,100 -1,500 Descending Houston Center
02:47PM 26.6633 -97.8425 225° Southwest 325 374 13,200 -1,620 Descending Houston Center
02:48PM 26.6392 -97.8694 225° Southwest 326 375 12,500 -1,860 Descending Houston Center
02:48PM 26.5981 -97.9167 226° Southwest 315 362 11,300 -1,800 Descending Houston Center
02:49PM 26.5772 -97.9408 226° Southwest 305 351 10,700 -1,440 Descending Houston Center
02:49PM 26.5442 -97.9789 226° Southwest 288 331 9,800 -1,500 Descending Houston Center
02:50PM 26.5247 -98.0017 226° Southwest 275 316 9,200 -1,680 Descending Houston Center
02:50PM 26.4906 -98.0400 225° Southwest 263 303 8,100 -1,200 Descending Houston Center
02:51PM 26.4758 -98.0569 226° Southwest 260 299 8,000 -1,020 Descending Houston Center
02:51PM 26.4411 -98.0967 226° Southwest 257 296 7,100 -1,500 Descending Houston Center
02:52PM 26.4253 -98.1150 226° Southwest 257 296 6,500 -1,800 Descending Houston Center
02:53PM 26.3747 -98.1731 226° Southwest 262 302 4,800 -1,740 Descending Houston Center
02:53PM 26.3358 -98.2175 226° Southwest 261 300 3,500 -1,680 Descending Houston Center
02:54PM 26.3200 -98.2339 223° Southwest 260 299 3,100 -1,380 Descending Houston Center
02:54PM 26.2836 -98.2767 227° Southwest 252 290 2,100 -1,020 Descending Houston Center
02:55PM 26.2731 -98.2889 226° Southwest 250 288 2,100 -420 Level Houston Center
02:56PM 26.2411 -98.2967 192° South 186 214 1,700 -720 Descending Houston Center
02:57PM 26.2081 -98.2708 145° Southeast 139 160 900 -780 Descending Houston Center
02:59PM 26.1758 -98.2386 214° Southwest  Level Estimated